Terminal Aerodrome Forecast
Issued by NWS Shreveport, LA

Home | Current Version | Previous Version | Text Only | Print | Product List | Glossary On
Versions: 1 2 3 4 5 6 7 8 9 10 11 12 13 14 15
000
FTUS44 KSHV 262300 RRA
TAFMLU
TAF
KMLU 262353Z 2700/2724 12005KT P6SM -RA BKN015 OVC030
      TEMPO 2700/2702 3SM -RA BR BKN005 OVC010
     FM270200 13006KT 5SM BR OVC007
     FM270600 14006KT 4SM -RA BR OVC010
     FM270900 14005KT 6SM BR VCSH SCT007 OVC015
      TEMPO 2709/2712 3SM -SHRA BR OVC005
     FM271200 14005KT 2SM BR VCSH OVC007
     FM271500 15004KT 1 1/2SM BR OVC004
     FM271800 17006KT 3SM -TSRA BR OVC008CB
     FM272100 10004KT 4SM -RA BR OVC015=

USA.gov is the U.S. government's official web portal to all federal, state and local government web resources and services.